createdAt,value
2023-03-27T00:00:53.902Z,805.04
2023-03-27T00:01:53.842Z,805.03
2023-03-27T00:02:53.838Z,805.05
2023-03-27T00:03:53.986Z,805.02
2023-03-27T00:04:53.801Z,804.99
2023-03-27T00:05:53.807Z,804.99
2023-03-27T00:06:53.825Z,805.02
2023-03-27T00:07:53.810Z,805.05
2023-03-27T00:08:53.812Z,805.03
2023-03-27T00:09:53.817Z,805.06
2023-03-27T00:10:54.177Z,805.07
2023-03-27T00:11:53.823Z,805.11
2023-03-27T00:12:53.829Z,805.15
2023-03-27T00:13:53.849Z,805.14
2023-03-27T00:14:53.839Z,805.10
2023-03-27T00:15:53.836Z,805.18
2023-03-27T00:16:53.880Z,805.16
2023-03-27T00:17:53.896Z,805.30
2023-03-27T00:18:53.842Z,805.23
2023-03-27T00:19:53.864Z,805.22
2023-03-27T00:20:53.997Z,805.20
2023-03-27T00:21:53.859Z,805.17
2023-03-27T00:22:53.881Z,805.19
2023-03-27T00:23:53.877Z,805.24
2023-03-27T00:24:53.866Z,805.30
2023-03-27T00:25:53.871Z,805.28
2023-03-27T00:26:53.870Z,805.36
2023-03-27T00:27:53.885Z,805.40
2023-03-27T00:28:53.876Z,805.38
2023-03-27T00:29:53.903Z,805.38
2023-03-27T00:30:53.964Z,805.41
2023-03-27T00:31:53.901Z,805.45
2023-03-27T00:32:53.956Z,805.43
2023-03-27T00:33:53.899Z,805.46
2023-03-27T00:34:53.898Z,805.45
2023-03-27T00:35:53.994Z,805.44
2023-03-27T00:36:53.911Z,805.45
2023-03-27T00:37:53.925Z,805.46
2023-03-27T00:38:53.934Z,805.41
2023-03-27T00:39:53.930Z,805.46
2023-03-27T00:40:54.041Z,805.45
2023-03-27T00:41:53.924Z,805.47
2023-03-27T00:42:53.925Z,805.50
2023-03-27T00:43:53.930Z,805.51
2023-03-27T00:44:53.963Z,805.51
2023-03-27T00:45:53.989Z,805.58
2023-03-27T00:46:53.939Z,805.58
2023-03-27T00:47:53.972Z,805.64
2023-03-27T00:48:53.949Z,805.66
2023-03-27T00:49:53.954Z,805.75
2023-03-27T00:50:54.094Z,805.77
2023-03-27T00:51:53.955Z,805.70
2023-03-27T00:52:53.954Z,805.67
2023-03-27T00:53:53.961Z,805.65
2023-03-27T00:54:53.988Z,805.66
2023-03-27T00:55:53.983Z,805.62
2023-03-27T00:56:54.000Z,805.62
2023-03-27T00:57:53.974Z,805.60
2023-03-27T00:58:53.979Z,805.62
2023-03-27T00:59:53.979Z,805.53
2023-03-27T01:00:54.205Z,805.48
2023-03-27T01:01:54.013Z,805.49
2023-03-27T01:02:54.075Z,805.41
2023-03-27T01:03:54.112Z,805.39
2023-03-27T01:04:53.989Z,805.39
2023-03-27T01:05:53.998Z,805.38
2023-03-27T01:06:53.996Z,805.40
2023-03-27T01:08:01.083Z,805.39
2023-03-27T01:08:54.001Z,805.40
2023-03-27T01:09:54.006Z,805.46
2023-03-27T01:10:54.303Z,805.48
2023-03-27T01:11:54.027Z,805.51
2023-03-27T01:12:54.014Z,805.55
2023-03-27T01:13:54.021Z,805.55
2023-03-27T01:14:54.022Z,805.56
2023-03-27T01:15:54.072Z,805.55
2023-03-27T01:16:54.031Z,805.57
2023-03-27T01:17:54.067Z,805.51
2023-03-27T01:18:54.032Z,805.54
2023-03-27T01:19:54.037Z,805.52
2023-03-27T01:20:54.157Z,805.47
2023-03-27T01:21:54.042Z,805.52
2023-03-27T01:22:54.049Z,805.53
2023-03-27T01:23:59.717Z,805.54
2023-03-27T01:24:54.049Z,805.57
2023-03-27T01:25:54.064Z,805.55
2023-03-27T01:26:54.074Z,805.55
2023-03-27T01:27:54.063Z,805.52
2023-03-27T01:28:54.069Z,805.49
2023-03-27T01:29:54.071Z,805.51
2023-03-27T01:30:54.403Z,805.56
2023-03-27T01:31:54.136Z,805.52
2023-03-27T01:32:54.128Z,805.53
2023-03-27T01:33:54.090Z,805.56
2023-03-27T01:35:01.057Z,805.58
2023-03-27T01:35:54.119Z,805.59
2023-03-27T01:36:54.089Z,805.61
2023-03-27T01:37:54.096Z,805.65
2023-03-27T01:38:54.093Z,805.65
2023-03-27T01:39:54.120Z,805.64
2023-03-27T01:40:54.274Z,805.62
2023-03-27T01:41:54.129Z,805.66
2023-03-27T01:42:54.130Z,805.65
2023-03-27T01:43:54.115Z,805.68
2023-03-27T01:44:54.118Z,805.64
2023-03-27T01:45:54.119Z,805.70
2023-03-27T01:46:54.152Z,805.67
2023-03-27T01:47:54.207Z,805.67
2023-03-27T01:48:54.127Z,805.67
2023-03-27T01:49:54.136Z,805.69
2023-03-27T01:50:54.369Z,805.66
2023-03-27T01:51:54.145Z,805.63
2023-03-27T01:52:54.143Z,805.66
2023-03-27T01:53:54.145Z,805.63
2023-03-27T01:54:54.152Z,805.66
2023-03-27T01:55:54.152Z,805.66
2023-03-27T01:56:54.285Z,805.64
2023-03-27T01:57:54.165Z,805.69
2023-03-27T01:58:54.175Z,805.70
2023-03-27T01:59:54.165Z,805.66
2023-03-27T02:00:54.195Z,805.62
2023-03-27T02:01:54.175Z,805.63
2023-03-27T02:02:54.213Z,805.65
2023-03-27T02:03:54.180Z,805.58
2023-03-27T02:04:54.258Z,805.59
2023-03-27T02:05:54.185Z,805.56
2023-03-27T02:06:54.187Z,805.61
2023-03-27T02:07:54.192Z,805.62
2023-03-27T02:08:54.185Z,805.58
2023-03-27T02:09:54.198Z,805.61
2023-03-27T02:10:54.362Z,805.63
2023-03-27T02:11:54.206Z,805.64
2023-03-27T02:12:54.198Z,805.71
2023-03-27T02:13:54.211Z,805.69
2023-03-27T02:14:54.231Z,805.70
2023-03-27T02:15:54.255Z,805.65
2023-03-27T02:16:54.222Z,805.65
2023-03-27T02:17:54.306Z,805.68
2023-03-27T02:18:54.234Z,805.69
2023-03-27T02:19:54.222Z,805.63
2023-03-27T02:21:54.235Z,805.69
2023-03-27T02:22:54.237Z,805.72
2023-03-27T02:23:54.236Z,805.66
2023-03-27T02:24:54.238Z,805.68
2023-03-27T02:25:54.251Z,805.68
2023-03-27T02:26:54.246Z,805.65
2023-03-27T02:27:54.244Z,805.66
2023-03-27T02:28:54.247Z,805.69
2023-03-27T02:29:54.247Z,805.67
2023-03-27T02:31:06.589Z,805.71
2023-03-27T02:31:54.290Z,805.70
2023-03-27T02:32:54.317Z,805.69
2023-03-27T02:33:54.260Z,805.65
2023-03-27T02:34:54.264Z,805.70
2023-03-27T02:35:54.291Z,805.66
2023-03-27T02:36:54.271Z,805.67
2023-03-27T02:37:54.269Z,805.70
2023-03-27T02:38:54.278Z,805.68
2023-03-27T02:39:54.286Z,805.68
2023-03-27T02:40:54.422Z,805.68
2023-03-27T02:41:54.283Z,805.70
2023-03-27T02:42:54.293Z,805.67
2023-03-27T02:43:54.288Z,805.78
2023-03-27T02:44:54.296Z,805.73
2023-03-27T02:45:54.348Z,805.76
2023-03-27T02:46:54.344Z,805.77
2023-03-27T02:47:54.329Z,805.68
2023-03-27T02:48:54.317Z,805.68
2023-03-27T02:49:54.322Z,805.67
2023-03-27T02:50:54.606Z,805.67
2023-03-27T02:51:54.316Z,805.69
2023-03-27T02:52:54.318Z,805.65
2023-03-27T02:53:54.315Z,805.70
2023-03-27T02:54:54.329Z,805.72
2023-03-27T02:55:54.323Z,805.67
2023-03-27T02:56:54.377Z,805.69
2023-03-27T02:57:54.328Z,805.66
2023-03-27T02:58:54.335Z,805.70
2023-03-27T02:59:54.339Z,805.73
2023-03-27T03:00:54.598Z,805.69
2023-03-27T03:01:54.344Z,805.74
2023-03-27T03:02:54.472Z,805.71
2023-03-27T03:03:54.344Z,805.70
2023-03-27T03:04:54.351Z,805.73
2023-03-27T03:05:54.348Z,805.77
2023-03-27T03:06:54.361Z,805.74
2023-03-27T03:07:54.429Z,805.78
2023-03-27T03:08:54.377Z,805.76
2023-03-27T03:09:54.389Z,805.77
2023-03-27T03:10:54.457Z,805.75
2023-03-27T03:11:54.400Z,805.76
2023-03-27T03:12:54.370Z,805.78
2023-03-27T03:13:54.376Z,805.71
2023-03-27T03:14:54.377Z,805.79
2023-03-27T03:15:54.376Z,805.84
2023-03-27T03:16:54.409Z,805.85
2023-03-27T03:17:54.435Z,805.85
2023-03-27T03:18:54.410Z,805.80
2023-03-27T03:19:54.390Z,805.82
2023-03-27T03:20:54.505Z,805.87
2023-03-27T03:21:54.436Z,805.86
2023-03-27T03:22:54.394Z,805.81
2023-03-27T03:23:58.115Z,805.85
2023-03-27T03:24:54.405Z,805.93
2023-03-27T03:25:54.400Z,805.86
2023-03-27T03:26:54.415Z,805.97
2023-03-27T03:27:54.406Z,805.89
2023-03-27T03:28:59.759Z,806.02
2023-03-27T03:29:54.409Z,805.97
2023-03-27T03:30:54.529Z,805.95
2023-03-27T03:31:54.417Z,805.95
2023-03-27T03:32:54.463Z,806.00
2023-03-27T03:33:54.419Z,805.98
2023-03-27T03:34:54.443Z,806.07
2023-03-27T03:35:54.463Z,806.08
2023-03-27T03:36:54.430Z,806.06
2023-03-27T03:37:54.429Z,806.06
2023-03-27T03:38:54.442Z,806.07
2023-03-27T03:39:54.471Z,806.03
2023-03-27T03:40:54.577Z,806.39
2023-03-27T03:41:54.440Z,806.22
2023-03-27T03:42:54.444Z,806.13
2023-03-27T03:43:54.448Z,806.08
2023-03-27T03:44:54.458Z,806.10
2023-03-27T03:45:54.475Z,806.13
2023-03-27T03:46:54.485Z,806.20
2023-03-27T03:47:54.490Z,806.09
2023-03-27T03:48:54.464Z,806.20
2023-03-27T03:49:54.458Z,806.14
2023-03-27T03:50:54.734Z,806.18
2023-03-27T03:52:03.627Z,806.18
2023-03-27T03:52:54.475Z,806.20
2023-03-27T03:53:54.467Z,806.17
2023-03-27T03:54:54.483Z,806.19
2023-03-27T03:55:54.471Z,806.22
2023-03-27T03:56:54.524Z,806.18
2023-03-27T03:57:54.476Z,806.16
2023-03-27T03:58:54.481Z,806.14
2023-03-27T03:59:54.487Z,806.11
2023-03-27T04:00:54.712Z,806.15
2023-03-27T04:01:54.515Z,806.11
2023-03-27T04:02:54.598Z,806.18
2023-03-27T04:03:54.535Z,806.20
2023-03-27T04:04:54.494Z,806.18
2023-03-27T04:05:54.504Z,806.15
2023-03-27T04:06:54.521Z,806.23
2023-03-27T04:07:54.506Z,806.25
2023-03-27T04:08:54.505Z,806.25
2023-03-27T04:09:54.506Z,806.25
2023-03-27T04:10:54.768Z,806.30
2023-03-27T04:11:54.529Z,806.28
2023-03-27T04:12:54.515Z,806.30
2023-03-27T04:13:54.520Z,806.35
2023-03-27T04:14:54.523Z,806.37
2023-03-27T04:15:54.563Z,806.39
2023-03-27T04:16:54.525Z,806.38
2023-03-27T04:17:54.612Z,806.38
2023-03-27T04:18:54.755Z,806.39
2023-03-27T04:19:54.526Z,806.42
2023-03-27T04:21:54.538Z,806.37
2023-03-27T04:22:54.560Z,806.42
2023-03-27T04:23:54.541Z,806.45
2023-03-27T04:24:54.542Z,806.41
2023-03-27T04:25:54.595Z,806.43
2023-03-27T04:26:54.555Z,806.46
2023-03-27T04:27:54.548Z,806.41
2023-03-27T04:28:54.589Z,806.43
2023-03-27T04:29:54.553Z,806.41
2023-03-27T04:30:54.651Z,806.48
2023-03-27T04:31:54.563Z,806.45
2023-03-27T04:32:54.661Z,806.41
2023-03-27T04:33:54.581Z,806.42
2023-03-27T04:34:54.600Z,806.40
2023-03-27T04:36:06.385Z,806.43
2023-03-27T04:36:54.576Z,806.51
2023-03-27T04:37:54.578Z,806.49
2023-03-27T04:38:54.605Z,806.51
2023-03-27T04:39:54.583Z,806.54
2023-03-27T04:40:54.808Z,806.47
2023-03-27T04:41:54.590Z,806.54
2023-03-27T04:42:54.595Z,806.54
2023-03-27T04:43:54.596Z,806.51
2023-03-27T04:44:54.602Z,806.55
2023-03-27T04:45:54.656Z,806.52
2023-03-27T04:46:54.650Z,806.44
2023-03-27T04:47:54.791Z,806.46
2023-03-27T04:48:54.612Z,806.56
2023-03-27T04:49:54.612Z,806.45
2023-03-27T04:50:54.969Z,806.55
2023-03-27T04:51:54.618Z,806.55
2023-03-27T04:52:54.621Z,806.60
2023-03-27T04:53:54.620Z,806.71
2023-03-27T04:54:54.647Z,806.61
2023-03-27T04:55:54.625Z,806.65
2023-03-27T04:56:54.644Z,806.68
2023-03-27T04:57:54.637Z,806.74
2023-03-27T04:58:54.634Z,806.67
2023-03-27T04:59:54.633Z,806.66
2023-03-27T05:00:54.792Z,806.65
2023-03-27T05:01:54.642Z,806.72
2023-03-27T05:02:54.677Z,806.74
2023-03-27T05:03:54.715Z,806.71
2023-03-27T05:04:54.650Z,806.78
2023-03-27T05:05:54.671Z,806.73
2023-03-27T05:06:54.656Z,806.78
2023-03-27T05:07:54.650Z,806.75
2023-03-27T05:08:54.652Z,806.79
2023-03-27T05:09:54.656Z,806.80
2023-03-27T05:10:54.918Z,806.87
2023-03-27T05:11:54.667Z,806.86
2023-03-27T05:12:57.151Z,806.82
2023-03-27T05:13:54.663Z,806.88
2023-03-27T05:14:54.682Z,806.87
2023-03-27T05:15:54.666Z,806.97
2023-03-27T05:16:54.673Z,806.99
2023-03-27T05:17:55.083Z,807.00
2023-03-27T05:18:54.687Z,806.98
2023-03-27T05:19:54.680Z,807.01
2023-03-27T05:20:54.840Z,807.04
2023-03-27T05:21:54.683Z,807.01
2023-03-27T05:22:54.710Z,807.06
2023-03-27T05:23:54.687Z,807.07
2023-03-27T05:24:54.695Z,807.04
2023-03-27T05:25:59.943Z,807.05
2023-03-27T05:26:54.770Z,807.06
2023-03-27T05:27:54.697Z,807.10
2023-03-27T05:28:54.706Z,807.06
2023-03-27T05:29:54.707Z,807.14
2023-03-27T05:30:55.090Z,807.11
2023-03-27T05:31:54.709Z,807.05
2023-03-27T05:32:54.746Z,807.13
2023-03-27T05:33:54.718Z,807.10
2023-03-27T05:34:54.731Z,807.11
2023-03-27T05:35:54.781Z,807.22
2023-03-27T05:36:54.725Z,807.27
2023-03-27T05:37:54.724Z,807.26
2023-03-27T05:38:54.732Z,807.25
2023-03-27T05:39:54.743Z,807.27
2023-03-27T05:40:54.990Z,807.32
2023-03-27T05:41:54.737Z,807.29
2023-03-27T05:42:54.766Z,807.30
2023-03-27T05:43:54.741Z,807.36
2023-03-27T05:44:54.745Z,807.36
2023-03-27T05:45:54.832Z,807.38
2023-03-27T05:46:54.749Z,807.35
2023-03-27T05:47:54.927Z,807.36
2023-03-27T05:48:54.755Z,807.41
2023-03-27T05:49:54.758Z,807.42
2023-03-27T05:50:54.973Z,807.40
2023-03-27T05:51:55.061Z,807.33
2023-03-27T05:52:54.764Z,807.37
2023-03-27T05:53:54.794Z,807.34
2023-03-27T05:54:54.772Z,807.38
2023-03-27T05:56:02.817Z,807.44
2023-03-27T05:56:54.856Z,807.48
2023-03-27T05:57:54.820Z,807.46
2023-03-27T05:58:54.802Z,807.39
2023-03-27T05:59:54.787Z,807.42
2023-03-27T06:00:54.895Z,807.50
2023-03-27T06:01:54.813Z,807.51
2023-03-27T06:02:54.870Z,807.51
2023-03-27T06:03:54.853Z,807.59
2023-03-27T06:04:54.799Z,807.59
2023-03-27T06:05:54.797Z,807.64
2023-03-27T06:06:54.803Z,807.61
2023-03-27T06:07:54.802Z,807.63
2023-03-27T06:08:54.808Z,807.61
2023-03-27T06:09:54.807Z,807.58
2023-03-27T06:10:55.022Z,807.60
2023-03-27T06:11:54.812Z,807.50
2023-03-27T06:12:55.121Z,807.54
2023-03-27T06:13:55.800Z,807.56
2023-03-27T06:14:54.842Z,807.61
2023-03-27T06:15:55.228Z,807.60
2023-03-27T06:16:54.828Z,807.47
2023-03-27T06:17:54.878Z,807.56
2023-03-27T06:18:55.039Z,807.63
2023-03-27T06:19:54.832Z,807.72
2023-03-27T06:20:55.071Z,807.72
2023-03-27T06:21:54.839Z,807.60
2023-03-27T06:22:54.843Z,807.68
2023-03-27T06:23:54.844Z,807.77
2023-03-27T06:24:54.851Z,807.77
2023-03-27T06:25:55.122Z,807.75
2023-03-27T06:26:54.868Z,807.65
2023-03-27T06:27:54.862Z,807.77
2023-03-27T06:28:54.878Z,807.75
2023-03-27T06:29:54.860Z,807.76
2023-03-27T06:30:54.918Z,807.56
2023-03-27T06:31:54.869Z,807.74
2023-03-27T06:32:54.928Z,807.68
2023-03-27T06:33:54.872Z,807.75
2023-03-27T06:34:54.875Z,807.71
2023-03-27T06:35:55.212Z,807.74
2023-03-27T06:36:54.879Z,807.88
2023-03-27T06:37:54.880Z,807.81
2023-03-27T06:38:54.889Z,807.87
2023-03-27T06:39:54.933Z,807.96
2023-03-27T06:40:55.049Z,807.86
2023-03-27T06:41:54.891Z,807.88
2023-03-27T06:42:54.923Z,807.87
2023-03-27T06:43:54.896Z,807.84
2023-03-27T06:44:54.895Z,807.87
2023-03-27T06:45:55.088Z,807.83
2023-03-27T06:46:54.937Z,807.78
2023-03-27T06:47:57.741Z,807.85
2023-03-27T06:48:54.922Z,807.88
2023-03-27T06:49:54.905Z,807.88
2023-03-27T06:50:55.074Z,807.94
2023-03-27T06:51:54.914Z,807.88
2023-03-27T06:52:54.908Z,807.93
2023-03-27T06:53:54.917Z,807.97
2023-03-27T06:54:54.915Z,807.99
2023-03-27T06:55:54.990Z,807.96
2023-03-27T06:56:54.974Z,807.97
2023-03-27T06:57:54.926Z,808.00
2023-03-27T06:58:54.923Z,808.06
2023-03-27T06:59:54.929Z,808.08
2023-03-27T07:00:54.928Z,808.09
2023-03-27T07:01:55.105Z,808.09
2023-03-27T07:02:54.961Z,808.13
2023-03-27T07:03:54.964Z,808.19
2023-03-27T07:05:04.279Z,808.19
2023-03-27T07:05:55.031Z,808.18
2023-03-27T07:06:54.940Z,808.18
2023-03-27T07:07:54.945Z,808.20
2023-03-27T07:08:54.977Z,808.17
2023-03-27T07:09:54.947Z,808.12
2023-03-27T07:11:54.951Z,808.20
2023-03-27T07:12:54.957Z,808.16
2023-03-27T07:13:54.960Z,808.12
2023-03-27T07:14:54.955Z,808.17
2023-03-27T07:15:55.128Z,808.08
2023-03-27T07:16:55.035Z,808.19
2023-03-27T07:17:54.966Z,808.20
2023-03-27T07:18:55.004Z,808.29
2023-03-27T07:19:54.985Z,808.25
2023-03-27T07:20:55.264Z,808.18
2023-03-27T07:21:54.977Z,808.22
2023-03-27T07:22:56.466Z,808.32
2023-03-27T07:23:54.980Z,808.36
2023-03-27T07:24:54.979Z,808.38
2023-03-27T07:25:55.067Z,808.34
2023-03-27T07:26:54.983Z,808.30
2023-03-27T07:27:54.993Z,808.49
2023-03-27T07:28:55.281Z,808.43
2023-03-27T07:29:54.990Z,808.57
2023-03-27T07:30:55.460Z,808.61
2023-03-27T07:31:58.777Z,808.69
2023-03-27T07:32:55.054Z,808.73
2023-03-27T07:33:55.064Z,808.78
2023-03-27T07:34:55.017Z,808.60
2023-03-27T07:35:55.148Z,808.73
2023-03-27T07:36:55.004Z,808.80
2023-03-27T07:37:55.030Z,808.84
2023-03-27T07:38:55.010Z,808.92
2023-03-27T07:39:55.025Z,808.92
2023-03-27T07:40:55.037Z,808.93
2023-03-27T07:41:55.028Z,808.93
2023-03-27T07:42:55.018Z,808.94
2023-03-27T07:43:55.025Z,808.95
2023-03-27T07:44:55.024Z,808.92
2023-03-27T07:45:55.126Z,808.93
2023-03-27T07:46:55.030Z,808.97
2023-03-27T07:47:55.115Z,809.00
2023-03-27T07:48:55.039Z,809.03
2023-03-27T07:49:55.044Z,809.15
2023-03-27T07:50:58.157Z,809.18
2023-03-27T07:51:55.060Z,809.22
2023-03-27T07:52:55.046Z,809.25
2023-03-27T07:53:55.050Z,809.28
2023-03-27T07:54:55.049Z,809.26
2023-03-27T07:55:55.228Z,809.25
2023-03-27T07:56:55.094Z,809.26
2023-03-27T07:58:01.851Z,809.32
2023-03-27T07:58:55.060Z,809.35
2023-03-27T07:59:55.069Z,809.34
2023-03-27T08:00:55.066Z,809.32
2023-03-27T08:01:55.072Z,809.36
2023-03-27T08:02:55.252Z,809.32
2023-03-27T08:03:55.208Z,809.33
2023-03-27T08:04:55.235Z,809.36
2023-03-27T08:05:55.323Z,809.41
2023-03-27T08:06:55.101Z,809.41
2023-03-27T08:07:55.100Z,809.41
2023-03-27T08:08:55.118Z,809.42
2023-03-27T08:09:55.092Z,809.42
2023-03-27T08:10:55.098Z,809.46
2023-03-27T08:11:55.102Z,809.50
2023-03-27T08:12:55.103Z,809.51
2023-03-27T08:13:55.107Z,809.51
2023-03-27T08:14:55.106Z,809.54
2023-03-27T08:15:55.274Z,809.57
2023-03-27T08:17:05.158Z,809.62
2023-03-27T08:17:55.623Z,809.65
2023-03-27T08:18:55.117Z,809.64
2023-03-27T08:19:55.128Z,809.74
2023-03-27T08:20:55.125Z,809.73
2023-03-27T08:21:55.131Z,809.77
2023-03-27T08:22:55.164Z,809.61
2023-03-27T08:23:56.779Z,809.52
2023-03-27T08:24:55.138Z,809.56
2023-03-27T08:25:55.405Z,809.62
2023-03-27T08:26:55.153Z,809.57
2023-03-27T08:27:55.150Z,809.65
2023-03-27T08:28:55.146Z,809.70
2023-03-27T08:29:55.154Z,809.72
2023-03-27T08:30:55.197Z,809.76
2023-03-27T08:31:55.168Z,809.76
2023-03-27T08:32:55.232Z,809.76
2023-03-27T08:33:55.205Z,809.76
2023-03-27T08:34:55.173Z,809.83
2023-03-27T08:35:55.352Z,809.79
2023-03-27T08:36:55.178Z,809.78
2023-03-27T08:37:55.184Z,809.84
2023-03-27T08:38:55.405Z,809.85
2023-03-27T08:39:55.190Z,809.79
2023-03-27T08:40:55.188Z,809.83
2023-03-27T08:41:55.229Z,809.89
2023-03-27T08:42:55.200Z,809.87
2023-03-27T08:43:55.202Z,809.95
2023-03-27T08:44:55.200Z,809.98
2023-03-27T08:45:55.474Z,810.00
2023-03-27T08:46:55.247Z,810.01
2023-03-27T08:47:55.233Z,810.06
2023-03-27T08:48:55.231Z,810.07
2023-03-27T08:49:55.223Z,810.07
2023-03-27T08:50:55.230Z,810.09
2023-03-27T08:51:55.231Z,810.08
2023-03-27T08:52:55.230Z,810.13
2023-03-27T08:53:55.238Z,810.12
2023-03-27T08:54:55.261Z,810.07
2023-03-27T08:55:55.503Z,810.12
2023-03-27T08:56:55.273Z,810.16
2023-03-27T08:57:55.256Z,810.16
2023-03-27T08:58:55.254Z,810.12
2023-03-27T08:59:55.265Z,810.14
2023-03-27T09:00:55.262Z,810.07
2023-03-27T09:01:55.306Z,810.06
2023-03-27T09:02:55.338Z,810.03
2023-03-27T09:03:55.356Z,810.08
2023-03-27T09:04:55.283Z,810.11
2023-03-27T09:05:55.553Z,810.13
2023-03-27T09:06:55.282Z,810.14
2023-03-27T09:07:55.290Z,810.15
2023-03-27T09:08:55.292Z,810.16
2023-03-27T09:09:55.300Z,810.18
2023-03-27T09:10:55.323Z,810.27
2023-03-27T09:11:55.306Z,810.31
2023-03-27T09:12:55.306Z,810.29
2023-03-27T09:13:55.325Z,810.29
2023-03-27T09:14:55.317Z,810.29
2023-03-27T09:15:55.489Z,810.33
2023-03-27T09:16:55.324Z,810.31
2023-03-27T09:17:55.382Z,810.29
2023-03-27T09:18:55.337Z,810.36
2023-03-27T09:19:55.346Z,810.38
2023-03-27T09:20:55.341Z,810.40
2023-03-27T09:21:55.351Z,810.36
2023-03-27T09:22:55.344Z,810.40
2023-03-27T09:23:55.358Z,810.47
2023-03-27T09:24:55.356Z,810.40
2023-03-27T09:25:55.577Z,810.39
2023-03-27T09:27:06.346Z,810.40
2023-03-27T09:27:55.366Z,810.37
2023-03-27T09:28:55.370Z,810.40
2023-03-27T09:30:05.563Z,810.40
2023-03-27T09:30:55.410Z,810.38
2023-03-27T09:31:55.384Z,810.41
2023-03-27T09:32:55.407Z,810.42
2023-03-27T09:33:55.398Z,810.42
2023-03-27T09:34:55.391Z,810.48
2023-03-27T09:35:55.689Z,810.49
2023-03-27T09:36:55.397Z,810.47
2023-03-27T09:37:55.405Z,810.51
2023-03-27T09:38:55.409Z,810.51
2023-03-27T09:39:55.424Z,810.47
2023-03-27T09:40:55.414Z,810.49
2023-03-27T09:41:55.425Z,810.44
2023-03-27T09:42:55.449Z,810.50
2023-03-27T09:43:55.437Z,810.50
2023-03-27T09:44:55.434Z,810.51
2023-03-27T09:45:55.639Z,810.49
2023-03-27T09:46:55.481Z,810.50
2023-03-27T09:47:55.572Z,810.50
2023-03-27T09:48:55.453Z,810.58
2023-03-27T09:49:55.459Z,810.56
2023-03-27T09:50:55.786Z,810.57
2023-03-27T09:51:55.476Z,810.57
2023-03-27T09:52:55.473Z,810.60
2023-03-27T09:53:55.486Z,810.60
2023-03-27T09:54:55.483Z,810.63
2023-03-27T09:55:55.489Z,810.62
2023-03-27T09:56:55.512Z,810.62
2023-03-27T09:57:55.512Z,810.66
2023-03-27T09:58:55.552Z,810.62
2023-03-27T09:59:55.510Z,810.67
2023-03-27T10:00:55.719Z,810.57
2023-03-27T10:01:55.526Z,810.64
2023-03-27T10:02:55.581Z,810.65
2023-03-27T10:03:55.553Z,810.65
2023-03-27T10:04:55.534Z,810.70
2023-03-27T10:05:55.542Z,810.71
2023-03-27T10:06:55.550Z,810.67
2023-03-27T10:07:55.555Z,810.68
2023-03-27T10:08:55.574Z,810.63
2023-03-27T10:09:55.563Z,810.72
2023-03-27T10:10:55.718Z,810.77
2023-03-27T10:11:55.577Z,810.77
2023-03-27T10:12:55.582Z,810.78
2023-03-27T10:13:55.592Z,810.84
2023-03-27T10:14:55.644Z,810.82
2023-03-27T10:15:55.595Z,810.85
2023-03-27T10:16:55.642Z,810.84
2023-03-27T10:17:55.694Z,810.87
2023-03-27T10:18:55.628Z,810.87
2023-03-27T10:19:55.618Z,810.94
2023-03-27T10:20:55.772Z,810.97
2023-03-27T10:21:55.642Z,810.89
2023-03-27T10:22:55.649Z,810.91
2023-03-27T10:23:55.638Z,810.97
2023-03-27T10:24:55.642Z,810.86
2023-03-27T10:25:55.651Z,810.88
2023-03-27T10:26:55.655Z,810.93
2023-03-27T10:27:55.667Z,810.99
2023-03-27T10:28:55.671Z,810.92
2023-03-27T10:29:55.704Z,810.98
2023-03-27T10:30:55.987Z,810.94
2023-03-27T10:31:55.804Z,810.95
2023-03-27T10:32:55.715Z,810.98
2023-03-27T10:33:55.698Z,810.98
2023-03-27T10:34:55.689Z,811.01
2023-03-27T10:35:55.753Z,810.99
2023-03-27T10:36:55.702Z,811.00
2023-03-27T10:37:55.714Z,811.03
2023-03-27T10:38:55.711Z,811.07
2023-03-27T10:39:55.720Z,811.11
2023-03-27T10:40:55.956Z,811.13
2023-03-27T10:41:55.735Z,811.13
2023-03-27T10:42:55.730Z,811.19
2023-03-27T10:43:55.738Z,811.18
2023-03-27T10:44:55.739Z,811.22
2023-03-27T10:45:55.769Z,811.22
2023-03-27T10:46:55.827Z,811.25
2023-03-27T10:47:55.824Z,811.25
2023-03-27T10:48:55.758Z,811.25
2023-03-27T10:49:55.775Z,811.29
2023-03-27T10:50:55.927Z,811.28
2023-03-27T10:51:55.781Z,811.28
2023-03-27T10:52:55.852Z,811.33
2023-03-27T10:53:55.888Z,811.33
2023-03-27T10:54:55.805Z,811.36
2023-03-27T10:55:55.798Z,811.34
2023-03-27T10:56:55.844Z,811.31
2023-03-27T10:57:55.828Z,811.32
2023-03-27T10:58:55.818Z,811.36
2023-03-27T10:59:55.823Z,811.36
2023-03-27T11:00:55.976Z,811.36
2023-03-27T11:01:55.871Z,811.38
2023-03-27T11:02:55.898Z,811.33
2023-03-27T11:03:55.850Z,811.33
2023-03-27T11:04:55.850Z,811.32
2023-03-27T11:05:55.852Z,811.34
2023-03-27T11:06:55.867Z,811.35
2023-03-27T11:07:55.867Z,811.39
2023-03-27T11:08:55.873Z,811.40
2023-03-27T11:09:55.874Z,811.39
2023-03-27T11:10:56.043Z,811.39
2023-03-27T11:11:55.885Z,811.39
2023-03-27T11:12:55.898Z,811.36
2023-03-27T11:13:55.906Z,811.37
2023-03-27T11:14:55.909Z,811.35
2023-03-27T11:15:55.919Z,811.34
2023-03-27T11:16:55.966Z,811.33
2023-03-27T11:17:55.968Z,811.36
2023-03-27T11:18:55.961Z,811.37
2023-03-27T11:19:55.944Z,811.39
2023-03-27T11:20:56.132Z,811.44
2023-03-27T11:21:55.963Z,811.39
2023-03-27T11:22:55.968Z,811.38
2023-03-27T11:23:55.988Z,811.32
2023-03-27T11:24:55.971Z,811.40
2023-03-27T11:25:55.980Z,811.34
2023-03-27T11:26:55.981Z,811.39
2023-03-27T11:27:56.010Z,811.37
2023-03-27T11:28:56.011Z,811.41
2023-03-27T11:29:55.993Z,811.39
2023-03-27T11:30:56.346Z,811.40
2023-03-27T11:31:56.085Z,811.42
2023-03-27T11:32:56.044Z,811.42
2023-03-27T11:33:56.021Z,811.45
2023-03-27T11:34:56.050Z,811.42
2023-03-27T11:35:56.059Z,811.38
2023-03-27T11:36:56.038Z,811.39
2023-03-27T11:37:56.044Z,811.42
2023-03-27T11:38:56.071Z,811.44
2023-03-27T11:39:56.069Z,811.47
2023-03-27T11:40:56.191Z,811.52
2023-03-27T11:41:56.080Z,811.50
2023-03-27T11:42:56.092Z,811.49
2023-03-27T11:43:56.080Z,811.47
2023-03-27T11:44:56.086Z,811.52
2023-03-27T11:45:56.200Z,811.49
2023-03-27T11:46:56.105Z,811.44
2023-03-27T11:47:56.165Z,811.47
2023-03-27T11:48:56.114Z,811.50
2023-03-27T11:49:56.115Z,811.53
2023-03-27T11:50:56.323Z,811.55
2023-03-27T11:51:56.151Z,811.56
2023-03-27T11:52:56.133Z,811.57
2023-03-27T11:53:56.137Z,811.55
2023-03-27T11:54:56.146Z,811.61
2023-03-27T11:55:56.150Z,811.61
2023-03-27T11:56:56.231Z,811.56
2023-03-27T11:57:56.160Z,811.60
2023-03-27T11:58:56.168Z,811.55
2023-03-27T11:59:56.172Z,811.60
2023-03-27T12:00:56.303Z,811.68
2023-03-27T12:01:56.213Z,811.66
2023-03-27T12:02:56.293Z,811.71
2023-03-27T12:03:56.338Z,811.67
2023-03-27T12:04:56.206Z,811.64
2023-03-27T12:05:56.211Z,811.69
2023-03-27T12:06:59.673Z,811.70
2023-03-27T12:07:56.232Z,811.67
2023-03-27T12:08:56.229Z,811.72
2023-03-27T12:09:56.233Z,811.66
2023-03-27T12:10:56.338Z,811.68
2023-03-27T12:11:56.261Z,811.69
2023-03-27T12:12:56.253Z,811.68
2023-03-27T12:14:01.625Z,811.73
2023-03-27T12:14:56.267Z,811.71
2023-03-27T12:15:56.267Z,811.72
2023-03-27T12:16:56.342Z,811.72
2023-03-27T12:17:56.305Z,811.71
2023-03-27T12:19:04.029Z,811.73
2023-03-27T12:19:56.293Z,811.76
2023-03-27T12:20:56.319Z,811.81
2023-03-27T12:21:56.305Z,811.82
2023-03-27T12:22:56.503Z,811.84
2023-03-27T12:23:56.316Z,811.83
2023-03-27T12:24:59.666Z,811.83
2023-03-27T12:25:56.338Z,811.80
2023-03-27T12:26:56.337Z,811.80
2023-03-27T12:27:56.343Z,811.73
2023-03-27T12:28:56.351Z,811.82
2023-03-27T12:29:56.352Z,811.80
2023-03-27T12:30:56.720Z,811.77
2023-03-27T12:31:56.406Z,811.78